Time;durP1;ratioP1;P1;durP2;ratioP2;P2;SDS_P1;SDS_P2;PMS_P1;PMS_P2;Temp;Humidity;BMP_temperature;BMP_pressure;BME280_temperature;BME280_humidity;BME280_pressure;Samples;Min_cycle;Max_cycle;Signal;HPM_P1;HPM_P2
2022/11/13 00:02:12;;;;;;;7.97;6.90;;;;;;;7.51;84.91;103004.44;6024242;29;20230;-73
2022/11/13 00:05:58;;;;;;;6.07;5.47;;;;;;;7.47;85.24;103001.97;6026611;29;20254;-72
2022/11/13 00:09:38;;;;;;;5.80;5.30;;;;;;;7.54;84.84;102996.25;6042907;29;20652;-73
2022/11/13 00:13:18;;;;;;;6.10;5.50;;;;;;;7.53;84.40;102988.28;6031769;29;20271;-73
2022/11/13 00:16:58;;;;;;;6.37;5.43;;;;;;;7.56;84.68;103001.56;6036821;29;20234;-72
2022/11/13 00:20:37;;;;;;;10.60;5.83;;;;;;;7.61;84.56;102996.88;6033148;29;20531;-72
2022/11/13 00:24:16;;;;;;;7.37;5.23;;;;;;;7.59;84.62;102988.91;6047104;29;20234;-73
2022/11/13 00:27:56;;;;;;;6.07;5.50;;;;;;;7.47;84.30;102988.53;6034278;29;20580;-73
2022/11/13 00:31:36;;;;;;;5.47;4.97;;;;;;;7.52;83.38;102978.47;6028397;29;20515;-73
2022/11/13 00:35:16;;;;;;;6.57;5.40;;;;;;;7.50;84.41;102989.28;6036321;29;20230;-73
2022/11/13 00:38:56;;;;;;;7.53;4.67;;;;;;;7.39;85.51;102979.91;6037720;29;20238;-74
2022/11/13 00:42:35;;;;;;;6.20;4.70;;;;;;;7.36;85.02;102980.94;6037542;29;21127;-73
2022/11/13 00:46:14;;;;;;;8.73;5.43;;;;;;;7.35;84.72;102987.22;6030916;29;20639;-73
2022/11/13 00:49:55;;;;;;;6.00;4.90;;;;;;;7.34;84.66;102982.81;6034856;29;20582;-73
2022/11/13 00:53:34;;;;;;;7.50;5.40;;;;;;;7.28;84.55;102981.25;6025295;29;20919;-73
2022/11/13 00:57:14;;;;;;;9.33;5.57;;;;;;;7.24;85.96;102984.09;6040656;29;20237;-73
2022/11/13 01:00:53;;;;;;;7.43;5.60;;;;;;;7.27;85.26;102989.34;6024934;29;20520;-73
2022/11/13 01:04:32;;;;;;;6.30;4.97;;;;;;;7.31;85.19;102985.63;6038920;29;20230;-73
2022/11/13 01:08:15;;;;;;;8.17;5.53;;;;;;;7.34;84.69;102989.97;6036193;29;20257;-73
2022/11/13 01:11:54;;;;;;;6.57;4.77;;;;;;;7.28;85.21;102987.56;6023505;29;20636;-73
2022/11/13 01:15:34;;;;;;;5.80;4.97;;;;;;;7.31;85.59;102982.03;6039728;29;20253;-72
2022/11/13 01:19:13;;;;;;;4.80;4.37;;;;;;;7.31;85.05;102980.25;6038183;29;20242;-74
2022/11/13 01:22:52;;;;;;;5.33;3.83;;;;;;;7.32;84.53;102983.81;6037906;29;20620;-73
2022/11/13 01:26:33;;;;;;;6.77;4.93;;;;;;;7.32;85.58;102979.31;6033998;29;20233;-73
2022/11/13 01:30:13;;;;;;;6.27;5.67;;;;;;;7.34;84.83;102966.72;6039746;29;20230;-73
2022/11/13 01:33:52;;;;;;;5.20;4.70;;;;;;;7.31;85.13;102972.19;6035720;29;21525;-73
2022/11/13 01:37:31;;;;;;;6.70;5.37;;;;;;;7.36;84.66;102972.00;6037783;29;20624;-72
2022/11/13 01:41:17;;;;;;;7.93;5.60;;;;;;;7.29;85.91;102974.06;6035157;29;20229;-73
2022/11/13 01:44:59;;;;;;;8.90;5.73;;;;;;;7.35;85.36;102957.72;6042891;29;20286;-73
2022/11/13 01:48:42;;;;;;;7.70;6.20;;;;;;;7.32;84.95;102965.03;6036527;29;20265;-73
2022/11/13 01:52:25;;;;;;;8.33;7.47;;;;;;;7.28;85.49;102956.22;6041007;29;20233;-73
2022/11/13 01:56:06;;;;;;;6.00;5.40;;;;;;;7.33;85.96;102958.72;6028788;29;20261;-73
2022/11/13 01:59:49;;;;;;;5.40;4.90;;;;;;;7.37;84.74;102955.84;6039845;29;20242;-72
2022/11/13 02:16:10;;;;;;;6.77;5.57;;;;;;;7.32;86.34;102930.16;6028697;29;20242;-73
2022/11/13 02:19:55;;;;;;;6.70;5.37;;;;;;;7.40;86.01;102930.69;6042319;29;20238;-74
2022/11/13 02:23:43;;;;;;;5.20;4.70;;;;;;;7.36;85.02;102929.97;6034534;29;20326;-73
2022/11/13 02:27:29;;;;;;;6.23;5.33;;;;;;;7.30;85.29;102932.91;6034137;29;20230;-73
2022/11/13 02:31:10;;;;;;;6.17;5.27;;;;;;;7.30;86.43;102929.34;6025136;29;20237;-73
2022/11/13 02:34:49;;;;;;;10.67;5.97;;;;;;;7.29;85.85;102936.53;6043351;29;20241;-73
2022/11/13 02:38:29;;;;;;;7.83;5.80;;;;;;;7.28;85.91;102929.41;6037046;29;20325;-74
2022/11/13 02:42:08;;;;;;;7.53;6.77;;;;;;;7.27;85.67;102933.03;6031474;29;20327;-73
2022/11/13 02:45:48;;;;;;;9.20;7.37;;;;;;;7.25;86.44;102932.22;6038569;29;20241;-73
2022/11/13 02:49:28;;;;;;;5.87;4.30;;;;;;;7.26;85.88;102933.94;6040441;29;20238;-73
2022/11/13 02:53:07;;;;;;;12.07;6.97;;;;;;;7.19;86.66;102937.84;6037398;29;20631;-73
2022/11/13 02:56:46;;;;;;;6.43;5.83;;;;;;;7.16;85.89;102932.59;6031984;29;20230;-74
2022/11/13 03:00:26;;;;;;;7.70;5.67;;;;;;;7.20;85.44;102934.22;6037334;29;20238;-72
2022/11/13 03:04:06;;;;;;;7.47;6.10;;;;;;;7.15;86.64;102929.03;6042997;29;20229;-73
2022/11/13 03:07:46;;;;;;;8.53;5.60;;;;;;;7.07;85.91;102919.59;6041653;29;20483;-73
2022/11/13 03:11:25;;;;;;;8.30;5.83;;;;;;;7.08;86.84;102921.31;6028753;29;20233;-72
2022/11/13 03:15:06;;;;;;;9.37;5.47;;;;;;;7.10;87.38;102919.44;6040774;29;20245;-74
2022/11/13 03:18:46;;;;;;;7.67;6.63;;;;;;;7.13;87.04;102922.00;6039144;29;20238;-73
2022/11/13 03:22:27;;;;;;;6.33;5.73;;;;;;;7.09;87.05;102918.56;6038855;29;20233;-73
2022/11/13 03:26:10;;;;;;;8.30;5.87;;;;;;;7.00;86.56;102912.72;6030708;29;20250;-74
2022/11/13 03:29:49;;;;;;;9.47;6.40;;;;;;;6.97;86.98;102900.31;6044183;29;20503;-73
2022/11/13 03:33:29;;;;;;;8.30;6.30;;;;;;;7.01;87.23;102895.69;6041930;29;20238;-73
2022/11/13 03:37:08;;;;;;;8.40;6.37;;;;;;;7.03;87.42;102889.31;6033785;29;20237;-73
2022/11/13 03:40:49;;;;;;;7.37;6.03;;;;;;;7.01;87.06;102888.53;6043689;29;20514;-73
2022/11/13 03:44:28;;;;;;;10.53;7.03;;;;;;;7.15;86.38;102878.06;6035239;29;20233;-73
2022/11/13 03:48:08;;;;;;;9.13;5.97;;;;;;;7.08;86.97;102886.47;6035026;29;20245;-73
2022/11/13 03:51:48;;;;;;;9.90;6.83;;;;;;;7.04;87.11;102892.88;6036229;29;20233;-73
2022/11/13 03:55:28;;;;;;;8.43;6.40;;;;;;;7.02;86.97;102886.72;6043707;29;20261;-73
2022/11/13 03:59:08;;;;;;;7.83;5.50;;;;;;;6.97;87.14;102878.88;6029911;29;20242;-73
2022/11/13 04:02:47;;;;;;;8.60;5.97;;;;;;;7.01;87.01;102868.88;6039638;29;20584;-73
2022/11/13 04:06:27;;;;;;;7.93;7.07;;;;;;;7.03;87.61;102867.88;6030994;29;20510;-75
2022/11/13 04:10:07;;;;;;;8.27;6.50;;;;;;;7.02;87.36;102867.94;6020968;29;21057;-73
2022/11/13 04:13:46;;;;;;;5.83;5.30;;;;;;;6.98;87.50;102856.50;6034213;29;20237;-73
2022/11/13 04:17:27;;;;;;;7.17;5.47;;;;;;;6.93;87.52;102858.47;6033818;29;20241;-73
2022/11/13 04:21:06;;;;;;;10.10;4.93;;;;;;;6.94;87.32;102865.59;6030586;29;20229;-73
2022/11/13 04:24:45;;;;;;;10.27;7.00;;;;;;;6.94;86.72;102860.25;6037469;29;20233;-73
2022/11/13 04:28:25;;;;;;;10.50;6.67;;;;;;;6.94;86.76;102862.03;6041437;29;20261;-73
2022/11/13 04:32:05;;;;;;;6.43;5.67;;;;;;;6.89;87.20;102864.03;6034852;29;20245;-73
2022/11/13 04:35:47;;;;;;;8.17;5.73;;;;;;;6.81;87.83;102864.34;6038824;29;20234;-73
2022/11/13 04:39:26;;;;;;;7.70;6.33;;;;;;;6.80;87.56;102861.75;6040368;29;20250;-73
2022/11/13 04:43:06;;;;;;;8.37;5.77;;;;;;;6.81;87.40;102858.13;6039119;29;20233;-74
2022/11/13 04:46:45;;;;;;;10.97;5.33;;;;;;;6.77;86.66;102857.38;6036467;29;20232;-73
2022/11/13 04:50:25;;;;;;;10.13;6.93;;;;;;;6.66;86.81;102866.78;6037587;29;20253;-74
2022/11/13 04:54:06;;;;;;;11.87;6.13;;;;;;;6.67;86.97;102866.75;6037689;29;20234;-74
2022/11/13 04:57:46;;;;;;;5.30;4.80;;;;;;;6.61;87.93;102860.75;6039032;29;20229;-74
2022/11/13 05:01:25;;;;;;;6.90;6.20;;;;;;;6.62;87.29;102854.44;6028499;29;20255;-74
2022/11/13 05:05:05;;;;;;;7.83;5.87;;;;;;;6.63;87.73;102853.53;6047086;29;20262;-74
2022/11/13 05:08:46;;;;;;;8.67;5.93;;;;;;;6.60;87.82;102857.19;6043536;29;20246;-74
2022/11/13 05:12:26;;;;;;;6.77;5.50;;;;;;;6.58;87.77;102858.19;6031955;29;20233;-72
2022/11/13 05:16:08;;;;;;;10.30;6.77;;;;;;;6.57;87.37;102856.47;6027672;29;20246;-73
2022/11/13 05:19:47;;;;;;;7.67;6.30;;;;;;;6.56;88.04;102850.22;6046882;29;20233;-73
2022/11/13 05:23:27;;;;;;;6.23;5.57;;;;;;;6.53;88.41;102844.13;6041114;29;20233;-73
2022/11/13 05:27:06;;;;;;;8.83;6.60;;;;;;;6.58;88.45;102851.03;6037846;29;20610;-72
2022/11/13 05:30:46;;;;;;;5.87;4.30;;;;;;;6.60;88.02;102842.91;6037653;29;20233;-73
2022/11/13 05:34:26;;;;;;;7.87;5.20;;;;;;;6.52;88.34;102840.56;6035999;29;20269;-73
2022/11/13 05:38:05;;;;;;;6.57;5.43;;;;;;;6.52;88.28;102834.31;6040819;29;20234;-73
2022/11/13 05:41:44;;;;;;;10.63;6.50;;;;;;;6.56;88.66;102836.81;6035560;29;20241;-73
2022/11/13 05:45:24;;;;;;;9.03;6.67;;;;;;;6.48;88.37;102841.63;6042196;29;20242;-73
2022/11/13 05:49:04;;;;;;;9.07;6.63;;;;;;;6.47;88.36;102836.34;6040498;29;20229;-73
2022/11/13 05:52:44;;;;;;;8.50;6.67;;;;;;;6.45;88.77;102831.91;6029924;29;21226;-73
2022/11/13 05:56:24;;;;;;;7.73;6.37;;;;;;;6.41;88.28;102822.25;6027686;29;20257;-73
2022/11/13 06:00:05;;;;;;;6.80;5.90;;;;;;;6.36;88.82;102823.38;6036567;29;20241;-73
2022/11/13 06:03:44;;;;;;;10.10;7.00;;;;;;;6.35;88.52;102818.94;6033152;29;20257;-73
2022/11/13 06:07:25;;;;;;;10.07;7.30;;;;;;;6.39;88.74;102812.50;6039110;29;20233;-73
2022/11/13 06:11:07;;;;;;;8.70;6.67;;;;;;;6.31;88.52;102820.88;6020060;29;20777;-73
2022/11/13 06:14:46;;;;;;;6.90;5.93;;;;;;;6.29;89.06;102820.06;6038041;29;20238;-73
2022/11/13 06:18:26;;;;;;;8.97;6.70;;;;;;;6.35;88.75;102811.78;6036121;29;20258;-73
2022/11/13 06:22:05;;;;;;;7.73;5.63;;;;;;;6.28;88.23;102815.63;6015444;29;20237;-73
2022/11/13 06:25:46;;;;;;;6.17;5.40;;;;;;;6.26;88.73;102808.56;6009898;29;20262;-74
2022/11/13 06:29:26;;;;;;;7.30;6.10;;;;;;;6.23;88.67;102814.94;6034804;29;20238;-74
2022/11/13 06:33:05;;;;;;;9.57;7.33;;;;;;;6.24;88.78;102803.28;6018678;29;20266;-73
2022/11/13 06:36:44;;;;;;;6.60;6.00;;;;;;;6.13;88.82;102804.66;6030694;29;20236;-73
2022/11/13 06:40:23;;;;;;;9.23;5.40;;;;;;;6.10;89.27;102804.78;6038197;29;20229;-73
2022/11/13 06:44:04;;;;;;;6.93;5.57;;;;;;;6.12;88.85;102803.78;6029432;29;20254;-73
2022/11/13 06:47:44;;;;;;;7.77;6.00;;;;;;;6.12;89.54;102806.47;6039271;29;20341;-72
2022/11/13 06:51:25;;;;;;;7.03;6.17;;;;;;;6.23;89.02;102811.38;6023234;29;20244;-73
2022/11/13 06:55:05;;;;;;;6.87;5.37;;;;;;;6.15;89.10;102808.16;6032345;29;20242;-73
2022/11/13 06:58:44;;;;;;;7.77;6.47;;;;;;;6.11;89.38;102804.69;6038803;29;20632;-73
2022/11/13 07:02:25;;;;;;;8.40;6.23;;;;;;;6.21;88.95;102808.78;6025909;29;20326;-73
2022/11/13 07:06:06;;;;;;;7.97;6.50;;;;;;;6.11;89.50;102810.06;6023048;29;22045;-73
2022/11/13 07:09:46;;;;;;;9.07;6.50;;;;;;;6.17;89.75;102811.63;6026814;29;20245;-73
2022/11/13 07:13:26;;;;;;;8.17;6.60;;;;;;;6.30;89.11;102810.22;6033794;29;20730;-73
2022/11/13 07:17:05;;;;;;;8.20;6.27;;;;;;;5.90;91.34;102812.72;6031649;29;20265;-75
2022/11/13 07:20:46;;;;;;;8.80;6.73;;;;;;;6.16;90.74;102804.53;6038991;29;20230;-73
2022/11/13 07:24:25;;;;;;;9.50;5.53;;;;;;;6.19;90.79;102810.66;6030477;29;20580;-74
2022/11/13 07:28:05;;;;;;;9.13;5.43;;;;;;;6.27;90.48;102811.22;6043571;29;20228;-73
2022/11/13 07:31:44;;;;;;;5.93;4.90;;;;;;;6.37;89.98;102820.63;6036145;29;20249;-73
2022/11/13 07:35:23;;;;;;;9.07;6.47;;;;;;;6.54;89.84;102822.63;6048162;29;20245;-73
2022/11/13 07:39:04;;;;;;;7.00;6.30;;;;;;;6.71;89.07;102824.59;6035572;29;20234;-73
2022/11/13 07:42:43;;;;;;;7.53;5.77;;;;;;;6.80;88.67;102830.44;6035317;29;20237;-73
2022/11/13 07:46:22;;;;;;;9.50;7.37;;;;;;;6.96;88.61;102815.47;6033863;29;20237;-74
2022/11/13 07:50:02;;;;;;;8.27;5.63;;;;;;;7.09;88.12;102829.22;6033788;29;20234;-75
2022/11/13 07:53:42;;;;;;;11.37;6.93;;;;;;;7.25;87.71;102822.25;6031478;29;20245;-74
2022/11/13 07:57:22;;;;;;;12.13;5.23;;;;;;;7.23;87.12;102818.75;6030235;29;20233;-73
2022/11/13 08:01:03;;;;;;;8.40;7.00;;;;;;;7.22;87.55;102831.28;6008805;29;20241;-72
2022/11/13 08:04:43;;;;;;;6.47;5.03;;;;;;;7.40;87.46;102831.44;6034415;29;20253;-73
2022/11/13 08:08:22;;;;;;;8.80;6.40;;;;;;;7.51;86.65;102834.50;6041453;29;20390;-73
2022/11/13 08:12:01;;;;;;;9.23;5.97;;;;;;;7.47;86.95;102832.91;6027045;29;20229;-73
2022/11/13 08:15:42;;;;;;;7.87;6.37;;;;;;;7.17;88.17;102830.63;6038579;29;20565;-72
2022/11/13 08:19:21;;;;;;;8.00;5.93;;;;;;;7.18;89.86;102824.31;6037108;29;20238;-73
2022/11/13 08:23:02;;;;;;;9.63;6.23;;;;;;;7.18;89.98;102828.81;6032433;29;20356;-72
2022/11/13 08:26:41;;;;;;;10.63;7.33;;;;;;;7.16;91.22;102828.88;6027131;29;20236;-72
2022/11/13 08:30:21;;;;;;;13.43;7.13;;;;;;;7.79;95.48;102827.81;6033531;29;20233;-74
2022/11/13 08:34:02;;;;;;;8.60;5.93;;;;;;;7.44;92.35;102816.94;6029594;29;20245;-73
2022/11/13 08:37:41;;;;;;;10.10;6.83;;;;;;;7.52;94.05;102821.03;6038178;29;21646;-69
2022/11/13 08:41:21;;;;;;;12.43;11.10;;;;;;;7.76;93.74;102821.72;6030735;29;20763;-69
2022/11/13 08:45:00;;;;;;;11.67;10.33;;;;;;;8.13;92.93;102823.56;6028285;29;20234;-71
2022/11/13 08:48:40;;;;;;;12.47;10.43;;;;;;;8.52;89.42;102827.03;6033190;29;20718;-68
2022/11/13 08:52:20;;;;;;;19.53;17.60;;;;;;;8.21;90.71;102824.06;6026355;29;20288;-69
2022/11/13 08:56:01;;;;;;;222.27;162.53;;;;;;;9.05;91.82;102821.66;6019290;29;20238;-73
2022/11/13 08:59:40;;;;;;;26.97;20.70;;;;;;;8.80;89.36;102828.28;6043788;29;20491;-73
2022/11/13 09:03:19;;;;;;;16.30;10.43;;;;;;;8.83;88.02;102833.50;6030299;29;20739;-68
2022/11/13 09:06:59;;;;;;;16.20;9.03;;;;;;;8.84;86.54;102829.00;6017085;29;20758;-72
2022/11/13 09:10:39;;;;;;;12.73;8.43;;;;;;;8.64;87.04;102823.75;6035364;29;20245;-71
2022/11/13 09:14:19;;;;;;;8.47;6.20;;;;;;;8.23;89.42;102819.47;6032260;29;20281;-72
2022/11/13 09:17:59;;;;;;;15.60;6.80;;;;;;;8.21;90.26;102826.75;6035192;29;20628;-71
2022/11/13 09:21:38;;;;;;;7.40;6.20;;;;;;;7.99;91.20;102832.25;6034773;29;20244;-71
2022/11/13 09:25:17;;;;;;;12.53;8.73;;;;;;;8.07;90.68;102819.34;6041560;29;20265;-72
2022/11/13 09:28:58;;;;;;;9.60;7.53;;;;;;;8.05;90.58;102819.41;6031859;29;20325;-71
2022/11/13 09:32:37;;;;;;;11.63;7.77;;;;;;;7.97;91.51;102818.91;6023516;29;20256;-73
2022/11/13 09:36:17;;;;;;;11.47;7.80;;;;;;;7.84;92.63;102827.63;6024274;29;20271;-73
2022/11/13 09:39:56;;;;;;;14.37;7.73;;;;;;;7.95;92.12;102827.97;6027816;29;20238;-71
2022/11/13 09:43:41;;;;;;;10.60;8.07;;;;;;;7.79;93.18;102824.25;6031561;29;20229;-73
2022/11/13 09:47:27;;;;;;;10.93;7.77;;;;;;;8.27;91.20;102824.69;6030763;29;20238;-72
2022/11/13 09:51:12;;;;;;;10.53;7.00;;;;;;;7.93;91.90;102829.84;6023119;29;20238;-73
2022/11/13 09:54:52;;;;;;;7.07;6.27;;;;;;;8.56;94.13;102828.63;6043363;29;20534;-73
2022/11/13 09:58:44;;;;;;;8.90;6.87;;;;;;;9.10;93.10;102823.16;6034292;29;20229;-74
2022/11/13 10:02:33;;;;;;;8.70;5.97;;;;;;;9.08;90.72;102821.50;6030508;29;20291;-74
2022/11/13 10:06:23;;;;;;;10.17;7.27;;;;;;;8.72;90.37;102819.72;6030622;29;20900;-74
2022/11/13 10:10:31;;;;;;;7.50;6.43;;;;;;;9.09;90.92;102823.25;6039349;29;20226;-74
2022/11/13 10:14:17;;;;;;;8.93;7.00;;;;;;;9.12;88.48;102818.56;6018350;29;20824;-73
2022/11/13 10:18:05;;;;;;;9.17;7.40;;;;;;;8.82;88.16;102817.47;6026060;29;20261;-73
2022/11/13 10:21:48;;;;;;;16.27;7.13;;;;;;;8.78;88.91;102818.56;6022285;29;20237;-73
2022/11/13 10:25:31;;;;;;;10.77;8.07;;;;;;;8.90;88.13;102822.44;6028679;29;20253;-73
2022/11/13 10:29:14;;;;;;;11.07;7.57;;;;;;;8.95;88.28;102823.94;6027405;29;20243;-73
2022/11/13 10:32:53;;;;;;;10.97;8.50;;;;;;;8.85;87.80;102814.59;6026218;29;20258;-73
2022/11/13 10:36:42;;;;;;;9.23;7.03;;;;;;;8.68;88.27;102810.06;6020181;29;20818;-73
2022/11/13 10:40:25;;;;;;;9.53;7.40;;;;;;;8.51;88.41;102815.41;6032469;29;20249;-72
2022/11/13 10:44:06;;;;;;;10.50;6.63;;;;;;;8.51;88.91;102819.94;6020542;29;20230;-73
2022/11/13 10:47:48;;;;;;;13.40;8.10;;;;;;;8.52;88.94;102808.22;6026234;29;20241;-73
2022/11/13 10:51:29;;;;;;;12.10;7.53;;;;;;;8.49;88.68;102811.94;6020053;29;20268;-74
2022/11/13 10:55:22;;;;;;;9.93;7.03;;;;;;;8.50;88.95;102800.25;6025092;29;20349;-72
2022/11/13 10:59:04;;;;;;;12.87;8.47;;;;;;;8.72;88.48;102795.53;6018315;29;20237;-73
2022/11/13 11:02:48;;;;;;;12.47;8.10;;;;;;;8.58;88.74;102789.97;6023610;29;20245;-74
2022/11/13 11:06:33;;;;;;;10.23;7.33;;;;;;;8.37;89.66;102790.16;6021641;29;20629;-74
2022/11/13 11:10:22;;;;;;;10.60;7.03;;;;;;;8.17;91.09;102787.53;6031937;29;20233;-73
2022/11/13 11:14:16;;;;;;;11.17;8.13;;;;;;;8.40;90.47;102766.72;6019038;29;20561;-72
2022/11/13 11:18:00;;;;;;;8.77;7.87;;;;;;;8.43;90.13;102761.16;6035279;29;20233;-72
2022/11/13 11:21:42;;;;;;;8.97;6.13;;;;;;;8.28;91.09;102753.00;6028223;29;20237;-73
2022/11/13 11:25:30;;;;;;;13.53;8.13;;;;;;;8.38;91.11;102746.22;6045248;29;20497;-73
2022/11/13 11:29:18;;;;;;;9.57;7.53;;;;;;;8.58;90.20;102738.91;6027356;29;20238;-72
2022/11/13 11:33:09;;;;;;;11.33;7.47;;;;;;;8.75;89.96;102740.72;6029021;29;20238;-72
2022/11/13 11:36:57;;;;;;;13.63;7.90;;;;;;;8.89;89.34;102738.19;6019045;29;20265;-70
2022/11/13 11:40:42;;;;;;;11.83;6.77;;;;;;;9.05;89.09;102733.78;6015459;29;20597;-69
2022/11/13 11:44:30;;;;;;;10.80;8.20;;;;;;;8.91;88.84;102733.59;6012969;29;20777;-70
2022/11/13 11:48:13;;;;;;;8.87;6.10;;;;;;;9.08;88.22;102733.59;6017959;29;20252;-70
2022/11/13 11:52:03;;;;;;;9.47;7.07;;;;;;;8.91;87.55;102728.22;6004605;29;20260;-78
2022/11/13 11:56:00;;;;;;;10.47;5.90;;;;;;;8.73;88.78;102723.81;6016939;29;20242;-77
2022/11/13 11:59:53;;;;;;;9.27;6.13;;;;;;;8.80;88.81;102717.19;6011820;29;20245;-73
2022/11/13 12:04:06;;;;;;;8.83;6.27;;;;;;;8.96;87.87;102714.53;6015728;29;20532;-72
2022/11/13 12:07:59;;;;;;;8.30;6.40;;;;;;;9.05;87.68;102703.31;6030670;29;20245;-71
2022/11/13 12:11:48;;;;;;;7.63;5.83;;;;;;;9.28;87.03;102711.00;6017678;29;20601;-73
2022/11/13 12:15:38;;;;;;;8.50;5.57;;;;;;;9.34;86.43;102714.25;6036847;29;20551;-72
2022/11/13 12:19:30;;;;;;;9.13;5.63;;;;;;;9.09;86.67;102696.81;6030270;29;20601;-72
2022/11/13 12:23:21;;;;;;;6.43;5.60;;;;;;;8.90;87.24;102694.22;6043097;29;20264;-72
2022/11/13 12:27:14;;;;;;;8.33;6.57;;;;;;;8.92;86.64;102700.41;6031209;29;20578;-72
2022/11/13 12:31:02;;;;;;;6.93;4.90;;;;;;;8.81;86.92;102697.38;6038776;29;20237;-72
2022/11/13 12:34:45;;;;;;;7.30;6.20;;;;;;;8.91;87.22;102692.41;6028105;29;20253;-72
2022/11/13 12:38:36;;;;;;;7.07;5.30;;;;;;;8.99;87.19;102682.97;6043676;29;20887;-73
2022/11/13 12:42:23;;;;;;;7.27;4.97;;;;;;;9.19;86.03;102688.16;6034819;29;20229;-73
2022/11/13 12:46:08;;;;;;;6.53;5.43;;;;;;;9.04;86.12;102680.91;6024425;29;20238;-73
2022/11/13 12:49:57;;;;;;;9.67;7.33;;;;;;;9.12;86.46;102675.97;6037673;29;20230;-72
2022/11/13 12:53:45;;;;;;;6.00;4.77;;;;;;;9.05;86.34;102677.28;6032238;29;20756;-73
2022/11/13 12:57:26;;;;;;;6.77;4.93;;;;;;;9.20;86.12;102675.59;6032946;29;20244;-71
2022/11/13 13:01:14;;;;;;;10.50;8.87;;;;;;;9.18;85.91;102662.19;6010854;29;20321;-72
2022/11/13 13:05:06;;;;;;;6.17;5.57;;;;;;;9.36;85.84;102665.72;6027911;29;20577;-72
2022/11/13 13:09:01;;;;;;;10.60;6.13;;;;;;;9.36;85.40;102660.31;6035850;29;20333;-71
2022/11/13 13:12:51;;;;;;;10.53;5.57;;;;;;;9.29;85.73;102650.84;6033426;29;20237;-72
2022/11/13 13:16:30;;;;;;;7.03;4.90;;;;;;;9.31;85.32;102648.94;6021526;29;20237;-72
2022/11/13 13:20:33;;;;;;;7.13;5.07;;;;;;;9.37;85.79;102649.47;6036260;29;20245;-72
2022/11/13 13:24:29;;;;;;;10.90;6.47;;;;;;;9.37;85.54;102645.91;6027727;29;20227;-72
2022/11/13 13:28:22;;;;;;;8.87;6.33;;;;;;;9.34;85.94;102638.91;6036888;29;20252;-72
2022/11/13 13:32:11;;;;;;;6.57;4.47;;;;;;;9.21;86.13;102631.56;6034298;29;20234;-72
2022/11/13 13:36:01;;;;;;;6.37;5.63;;;;;;;9.21;86.85;102634.25;6043760;29;20294;-72
2022/11/13 13:39:52;;;;;;;6.27;5.60;;;;;;;9.25;87.08;102634.00;6038934;29;20238;-73
2022/11/13 13:43:46;;;;;;;7.53;5.60;;;;;;;9.19;87.13;102634.34;6033330;29;20510;-73
2022/11/13 13:47:29;;;;;;;5.43;4.93;;;;;;;9.25;86.59;102628.63;6030940;29;20250;-73
2022/11/13 13:51:16;;;;;;;5.10;4.33;;;;;;;9.35;86.56;102626.28;6019803;29;20234;-73
2022/11/13 13:54:57;;;;;;;6.23;5.67;;;;;;;9.33;86.66;102625.50;6039123;29;20546;-73
2022/11/13 13:58:39;;;;;;;5.37;4.83;;;;;;;9.26;87.21;102624.13;6035706;29;20238;-73
2022/11/13 14:02:21;;;;;;;7.70;6.30;;;;;;;9.36;86.60;102618.16;6026011;29;20233;-73
2022/11/13 14:06:09;;;;;;;8.33;5.70;;;;;;;9.43;86.17;102622.22;6016906;29;20242;-73
2022/11/13 14:09:48;;;;;;;6.87;4.60;;;;;;;9.34;86.40;102614.66;6037310;29;20277;-73
2022/11/13 14:13:29;;;;;;;7.40;6.17;;;;;;;9.25;87.04;102615.16;6024450;29;20246;-73
2022/11/13 14:17:11;;;;;;;10.77;5.53;;;;;;;9.31;87.32;102605.88;6027611;29;20238;-73
2022/11/13 14:20:52;;;;;;;9.57;6.10;;;;;;;9.35;87.33;102605.63;6048629;29;20237;-73
2022/11/13 14:24:35;;;;;;;9.17;6.83;;;;;;;9.25;87.77;102599.03;6037976;29;20234;-74
2022/11/13 14:28:17;;;;;;;9.80;7.00;;;;;;;9.16;88.62;102591.44;6039048;29;20237;-73
2022/11/13 14:32:03;;;;;;;11.03;7.50;;;;;;;9.25;88.19;102588.25;6039707;29;20682;-73
2022/11/13 14:35:51;;;;;;;8.67;7.13;;;;;;;9.23;88.11;102586.59;6041351;29;20269;-74
2022/11/13 14:39:34;;;;;;;9.70;6.20;;;;;;;9.19;88.40;102593.13;6042628;29;20233;-73
2022/11/13 14:43:18;;;;;;;9.87;7.23;;;;;;;9.06;89.20;102586.66;6033523;29;20265;-73
2022/11/13 14:47:01;;;;;;;9.83;7.13;;;;;;;9.18;88.88;102576.09;6040660;29;20316;-73
2022/11/13 14:50:50;;;;;;;13.73;8.13;;;;;;;9.10;89.22;102572.09;6039054;29;20604;-74
2022/11/13 14:54:32;;;;;;;12.10;8.67;;;;;;;9.15;89.03;102583.47;6034619;29;20234;-74
2022/11/13 14:58:13;;;;;;;11.67;8.33;;;;;;;9.11;89.31;102573.84;6039484;29;20257;-73
2022/11/13 15:01:54;;;;;;;9.33;6.70;;;;;;;8.99;90.36;102574.53;6026476;29;20237;-73
2022/11/13 15:05:33;;;;;;;11.30;7.70;;;;;;;9.01;90.47;102567.25;6035529;29;20246;-73
2022/11/13 15:09:16;;;;;;;9.87;8.47;;;;;;;8.99;90.16;102570.00;6035389;29;20237;-73
2022/11/13 15:12:55;;;;;;;12.27;8.77;;;;;;;9.15;89.97;102565.53;6039765;29;20260;-73
2022/11/13 15:16:35;;;;;;;10.87;7.07;;;;;;;9.19;90.06;102561.69;6034182;29;20237;-73
2022/11/13 15:20:17;;;;;;;8.97;6.50;;;;;;;9.23;89.98;102557.00;6043814;29;20558;-73
2022/11/13 15:23:56;;;;;;;12.73;7.10;;;;;;;9.30;89.96;102556.59;6039118;29;20644;-74
2022/11/13 15:27:37;;;;;;;6.93;5.30;;;;;;;9.24;89.60;102559.59;6035058;29;20229;-73
2022/11/13 15:31:20;;;;;;;5.60;4.80;;;;;;;9.05;90.32;102563.44;6033512;29;20225;-73
2022/11/13 15:34:59;;;;;;;7.63;5.27;;;;;;;9.14;90.27;102553.00;6047270;29;20234;-72
2022/11/13 15:38:39;;;;;;;6.83;4.43;;;;;;;9.10;90.21;102546.06;6049402;29;20246;-73
2022/11/13 15:42:28;;;;;;;6.17;4.50;;;;;;;9.17;90.44;102538.53;6037745;29;20233;-73
2022/11/13 15:46:13;;;;;;;4.57;2.80;;;;;;;9.09;90.98;102541.66;6039858;29;20241;-73
2022/11/13 15:49:53;;;;;;;3.53;3.23;;;;;;;9.19;90.25;102539.31;6043364;29;20238;-73
2022/11/13 15:53:32;;;;;;;8.93;3.20;;;;;;;9.13;90.45;102534.28;6049570;29;20234;-73
2022/11/13 15:57:19;;;;;;;7.63;3.90;;;;;;;9.04;91.55;102526.69;6039319;29;20277;-73
2022/11/13 16:00:58;;;;;;;4.03;2.80;;;;;;;9.08;91.60;102523.75;6036844;29;20237;-72
2022/11/13 16:04:39;;;;;;;3.83;3.43;;;;;;;9.15;91.47;102521.59;6043359;29;21965;-73
2022/11/13 16:08:18;;;;;;;4.33;2.57;;;;;;;9.23;91.33;102522.91;6044045;29;20552;-72
2022/11/13 16:11:59;;;;;;;3.57;2.97;;;;;;;9.15;92.09;102524.28;6026626;29;20241;-73
2022/11/13 16:15:39;;;;;;;3.20;2.47;;;;;;;9.24;91.92;102529.16;6043718;29;20242;-72
2022/11/13 16:19:23;;;;;;;3.33;2.77;;;;;;;9.31;91.62;102527.84;6043858;29;20233;-73
2022/11/13 16:23:03;;;;;;;3.67;2.77;;;;;;;9.40;91.09;102522.81;6050232;29;20237;-73
2022/11/13 16:26:49;;;;;;;3.60;3.20;;;;;;;9.35;91.49;102521.31;6037809;29;20248;-73
2022/11/13 16:30:30;;;;;;;3.33;2.67;;;;;;;9.38;91.54;102507.69;6048997;29;20227;-73
2022/11/13 16:34:09;;;;;;;3.00;2.73;;;;;;;9.41;91.71;102499.44;6040006;29;20245;-72
2022/11/13 16:37:48;;;;;;;5.60;3.67;;;;;;;9.44;92.01;102510.91;6043030;29;20241;-72
2022/11/13 16:41:31;;;;;;;3.30;2.30;;;;;;;9.33;92.50;102502.56;6034667;29;20537;-72
2022/11/13 16:45:10;;;;;;;5.40;3.77;;;;;;;9.33;93.13;102502.56;6045519;29;20226;-74
2022/11/13 16:48:49;;;;;;;3.73;2.23;;;;;;;9.25;93.18;102502.16;6033363;29;20725;-73
2022/11/13 16:52:30;;;;;;;6.83;2.63;;;;;;;9.29;93.57;102492.06;6043388;29;20253;-74
2022/11/13 16:56:13;;;;;;;1.73;1.63;;;;;;;9.19;93.93;102482.78;6023778;29;20241;-73
2022/11/13 16:59:54;;;;;;;3.97;2.80;;;;;;;9.29;93.94;102486.69;6035885;29;20541;-73
2022/11/13 17:03:33;;;;;;;3.13;2.37;;;;;;;9.32;93.78;102478.44;6021479;29;20238;-73
2022/11/13 17:07:14;;;;;;;3.03;2.73;;;;;;;9.30;94.22;102477.69;6024864;29;20241;-73
2022/11/13 17:10:57;;;;;;;3.80;2.03;;;;;;;9.37;94.13;102469.16;6028905;29;20279;-74
2022/11/13 17:14:37;;;;;;;3.47;2.13;;;;;;;9.36;94.12;102470.13;6032925;29;20515;-72
2022/11/13 17:18:18;;;;;;;4.07;3.17;;;;;;;9.39;94.10;102471.75;6044230;29;20872;-73
2022/11/13 17:21:58;;;;;;;3.20;2.73;;;;;;;9.37;94.06;102474.53;6033158;29;20629;-73
2022/11/13 17:25:37;;;;;;;4.57;3.63;;;;;;;9.40;94.08;102463.59;6042614;29;20249;-72
2022/11/13 17:29:17;;;;;;;7.00;4.60;;;;;;;9.45;93.97;102464.16;6035625;29;20225;-73
2022/11/13 17:32:56;;;;;;;8.20;6.27;;;;;;;9.54;93.64;102460.06;6044997;29;20233;-72
2022/11/13 17:36:37;;;;;;;3.97;3.57;;;;;;;9.43;93.97;102449.06;6035679;29;20229;-73